createdAt,value
2023-08-03T00:00:07.621Z,55.50
2023-08-03T00:02:35.842Z,55.50
2023-08-03T00:05:04.211Z,55.50
2023-08-03T00:07:31.681Z,55.50
2023-08-03T00:09:58.692Z,55.50
2023-08-03T00:12:26.112Z,55.60
2023-08-03T00:14:53.342Z,55.50
2023-08-03T00:17:21.147Z,55.60
2023-08-03T00:19:48.033Z,55.50
2023-08-03T00:22:14.927Z,55.50
2023-08-03T00:24:41.817Z,55.60
2023-08-03T00:27:08.710Z,55.50
2023-08-03T00:29:36.269Z,55.50
2023-08-03T00:32:03.302Z,55.50
2023-08-03T00:34:31.192Z,55.50
2023-08-03T00:36:58.434Z,55.50
2023-08-03T00:39:25.424Z,55.50
2023-08-03T00:41:52.881Z,55.60
2023-08-03T00:44:19.982Z,55.60
2023-08-03T00:46:47.189Z,55.60
2023-08-03T00:49:14.240Z,55.60
2023-08-03T00:51:41.381Z,55.60
2023-08-03T00:54:08.980Z,55.60
2023-08-03T00:56:36.592Z,55.60
2023-08-03T00:59:04.070Z,55.50
2023-08-03T01:01:30.989Z,55.50
2023-08-03T01:03:58.059Z,55.50
2023-08-03T01:06:25.013Z,55.50
2023-08-03T01:08:51.924Z,55.50
2023-08-03T01:11:18.894Z,55.40
2023-08-03T01:13:45.910Z,55.40
2023-08-03T01:16:12.980Z,55.40
2023-08-03T01:18:43.380Z,55.40
2023-08-03T01:21:11.046Z,55.40
2023-08-03T01:23:37.960Z,55.40
2023-08-03T01:26:04.847Z,55.40
2023-08-03T01:28:31.777Z,55.40
2023-08-03T01:30:59.706Z,55.40
2023-08-03T01:33:26.988Z,55.40
2023-08-03T01:35:54.038Z,55.40
2023-08-03T01:38:21.111Z,55.40
2023-08-03T01:40:48.086Z,55.40
2023-08-03T01:43:16.091Z,55.40
2023-08-03T01:45:42.975Z,55.40
2023-08-03T01:48:09.883Z,55.40
2023-08-03T01:50:36.862Z,55.40
2023-08-03T01:53:03.740Z,55.40
2023-08-03T01:55:30.878Z,55.40
2023-08-03T01:57:57.809Z,55.50
2023-08-03T02:00:25.506Z,55.50
2023-08-03T02:02:53.079Z,55.50
2023-08-03T02:05:20.022Z,55.50
2023-08-03T02:07:54.432Z,55.50
2023-08-03T02:10:22.395Z,55.50
2023-08-03T02:12:49.300Z,55.40
2023-08-03T02:15:16.970Z,55.40
2023-08-03T02:17:44.850Z,55.40
2023-08-03T02:20:12.298Z,55.40
2023-08-03T02:22:39.312Z,55.50
2023-08-03T02:25:06.978Z,55.40
2023-08-03T02:27:33.888Z,55.50
2023-08-03T02:30:01.180Z,55.50
2023-08-03T02:32:28.726Z,55.50
2023-08-03T02:34:55.833Z,55.50
2023-08-03T02:37:22.762Z,55.50
2023-08-03T02:39:49.632Z,55.50
2023-08-03T02:42:17.430Z,55.50
2023-08-03T02:44:44.396Z,55.50
2023-08-03T02:47:11.270Z,55.50
2023-08-03T02:49:38.194Z,55.50
2023-08-03T02:52:05.383Z,55.50
2023-08-03T02:54:32.574Z,55.50
2023-08-03T02:56:59.452Z,55.50
2023-08-03T02:59:26.369Z,55.50
2023-08-03T03:01:53.311Z,55.50
2023-08-03T03:04:20.235Z,55.50
2023-08-03T03:06:47.861Z,55.50
2023-08-03T03:09:15.129Z,55.50
2023-08-03T03:11:42.063Z,55.50
2023-08-03T03:14:09.021Z,55.50
2023-08-03T03:16:35.942Z,55.50
2023-08-03T03:19:03.077Z,55.50
2023-08-03T03:21:29.999Z,55.40
2023-08-03T03:23:56.908Z,55.40
2023-08-03T03:26:23.794Z,55.40
2023-08-03T03:28:50.676Z,55.40
2023-08-03T03:31:18.310Z,55.40
2023-08-03T03:33:45.224Z,55.40
2023-08-03T03:36:12.150Z,55.40
2023-08-03T03:38:39.122Z,55.40
2023-08-03T03:41:06.026Z,55.40
2023-08-03T03:43:33.620Z,55.40
2023-08-03T03:46:00.627Z,55.30
2023-08-03T03:48:27.584Z,55.30
2023-08-03T03:50:54.490Z,55.30
2023-08-03T03:53:21.384Z,55.30
2023-08-03T03:55:48.783Z,55.30
2023-08-03T03:58:15.715Z,55.20
2023-08-03T04:00:42.708Z,55.20
2023-08-03T04:03:09.855Z,55.20
2023-08-03T04:05:37.654Z,55.20
2023-08-03T04:08:05.294Z,55.10
2023-08-03T04:10:32.503Z,55.10
2023-08-03T04:12:59.388Z,55.10
2023-08-03T04:15:26.413Z,55.10
2023-08-03T04:17:53.867Z,55.10
2023-08-03T04:20:20.789Z,55.10
2023-08-03T04:22:47.711Z,55.00
2023-08-03T04:25:14.906Z,55.00
2023-08-03T04:27:41.796Z,55.00
2023-08-03T04:30:11.485Z,54.90
2023-08-03T04:32:38.630Z,54.90
2023-08-03T04:35:05.914Z,54.80
2023-08-03T04:37:32.871Z,54.80
2023-08-03T04:39:59.764Z,55.00
2023-08-03T04:42:27.612Z,55.30
2023-08-03T04:44:54.685Z,55.60
2023-08-03T04:47:21.573Z,55.50
2023-08-03T04:49:48.461Z,54.70
2023-08-03T04:52:15.621Z,53.30
2023-08-03T04:54:43.044Z,52.50
2023-08-03T04:57:09.919Z,51.50
2023-08-03T04:59:36.847Z,50.80
2023-08-03T05:02:03.932Z,50.90
2023-08-03T05:04:30.906Z,50.20
2023-08-03T05:06:58.568Z,50.00
2023-08-03T05:09:25.535Z,50.50
2023-08-03T05:11:52.382Z,50.10
2023-08-03T05:14:19.308Z,49.10
2023-08-03T05:16:46.322Z,50.50
2023-08-03T05:19:13.864Z,50.30
2023-08-03T05:21:40.881Z,51.10
2023-08-03T05:24:07.823Z,52.20
2023-08-03T05:26:34.899Z,51.80
2023-08-03T05:29:01.833Z,52.30
2023-08-03T05:31:29.704Z,52.30
2023-08-03T05:33:56.816Z,52.60
2023-08-03T05:36:24.700Z,53.00
2023-08-03T05:38:54.685Z,53.10
2023-08-03T05:41:22.893Z,53.70
2023-08-03T05:43:50.682Z,53.60
2023-08-03T05:46:18.471Z,53.50
2023-08-03T05:48:48.665Z,54.00
2023-08-03T05:51:20.448Z,53.90
2023-08-03T05:53:47.337Z,54.20
2023-08-03T05:56:14.242Z,54.90
2023-08-03T05:58:41.341Z,55.20
2023-08-03T06:01:11.478Z,55.10
2023-08-03T06:03:40.788Z,55.30
2023-08-03T06:06:10.805Z,55.20
2023-08-03T06:08:41.128Z,55.80
2023-08-03T06:11:09.005Z,55.60
2023-08-03T06:13:36.270Z,56.10
2023-08-03T06:16:13.788Z,55.60
2023-08-03T06:18:46.385Z,56.90
2023-08-03T06:21:14.088Z,56.70
2023-08-03T06:23:41.147Z,56.60
2023-08-03T06:26:12.694Z,57.00
2023-08-03T06:28:40.116Z,58.90
2023-08-03T06:31:16.383Z,59.20
2023-08-03T06:33:44.559Z,57.40
2023-08-03T06:36:13.396Z,60.50
2023-08-03T06:38:41.460Z,58.20
2023-08-03T06:41:09.941Z,57.00
2023-08-03T06:43:37.037Z,59.80
2023-08-03T06:46:04.240Z,57.90
2023-08-03T06:48:31.396Z,58.60
2023-08-03T06:50:58.642Z,60.60
2023-08-03T06:53:25.658Z,58.90
2023-08-03T06:55:52.687Z,60.40
2023-08-03T06:58:19.871Z,58.60
2023-08-03T07:00:47.710Z,58.60
2023-08-03T07:03:14.887Z,58.80
2023-08-03T07:05:42.290Z,58.70
2023-08-03T07:08:09.954Z,59.40
2023-08-03T07:10:37.282Z,58.50
2023-08-03T07:13:05.685Z,59.20
2023-08-03T07:15:35.192Z,61.00
2023-08-03T07:18:03.524Z,58.60
2023-08-03T07:20:30.707Z,59.50
2023-08-03T07:22:57.810Z,59.80
2023-08-03T07:25:25.374Z,61.90
2023-08-03T07:27:53.247Z,60.60
2023-08-03T07:30:20.486Z,59.30
2023-08-03T07:32:47.876Z,59.60
2023-08-03T07:35:14.954Z,59.50
2023-08-03T07:37:43.584Z,60.40
2023-08-03T07:40:10.881Z,59.10
2023-08-03T07:42:37.781Z,59.40
2023-08-03T07:45:04.866Z,59.80
2023-08-03T07:47:32.410Z,58.80
2023-08-03T07:50:00.862Z,60.00
2023-08-03T07:52:27.800Z,58.90
2023-08-03T07:54:56.116Z,59.50
2023-08-03T07:57:23.184Z,58.70
2023-08-03T07:59:50.512Z,60.20
2023-08-03T08:02:18.529Z,59.20
2023-08-03T08:04:49.222Z,59.90
2023-08-03T08:07:16.393Z,60.20
2023-08-03T08:09:43.350Z,60.70
2023-08-03T08:12:10.288Z,60.40
2023-08-03T08:14:37.746Z,59.40
2023-08-03T08:19:34.859Z,60.40
2023-08-03T08:22:14.560Z,59.00
2023-08-03T08:24:43.015Z,58.70
2023-08-03T08:27:10.296Z,59.50
2023-08-03T08:29:38.852Z,58.80
2023-08-03T08:32:06.756Z,58.00
2023-08-03T08:34:33.776Z,58.40
2023-08-03T08:37:01.163Z,58.70
2023-08-03T08:39:30.568Z,58.90
2023-08-03T08:41:57.954Z,57.70
2023-08-03T08:44:25.020Z,57.20
2023-08-03T08:46:52.215Z,57.70
2023-08-03T08:54:20.614Z,58.40
2023-08-03T09:01:51.147Z,58.20
2023-08-03T09:06:58.975Z,57.00
2023-08-03T09:09:28.362Z,58.10
2023-08-03T09:11:57.396Z,57.40
2023-08-03T09:14:24.950Z,57.80
2023-08-03T09:16:52.071Z,58.00
2023-08-03T09:19:39.701Z,57.20
2023-08-03T09:22:07.091Z,58.90
2023-08-03T09:24:35.717Z,58.90
2023-08-03T09:27:03.013Z,58.00
2023-08-03T09:29:32.128Z,58.40
2023-08-03T09:32:02.127Z,57.10
2023-08-03T09:34:46.497Z,57.40
2023-08-03T09:37:14.680Z,59.00
2023-08-03T09:39:54.766Z,59.40
2023-08-03T09:44:56.003Z,57.00
2023-08-03T09:47:23.268Z,57.70
2023-08-03T09:49:51.537Z,57.90
2023-08-03T09:52:49.587Z,57.10
2023-08-03T09:55:22.257Z,57.00
2023-08-03T09:58:04.079Z,57.10
2023-08-03T10:00:31.785Z,56.90
2023-08-03T10:03:11.235Z,56.80
2023-08-03T10:05:40.880Z,56.40
2023-08-03T10:08:13.822Z,56.50
2023-08-03T10:10:44.517Z,56.50
2023-08-03T10:13:12.040Z,55.80
2023-08-03T10:15:39.948Z,58.60
2023-08-03T10:18:07.761Z,56.70
2023-08-03T10:20:35.992Z,57.00
2023-08-03T10:23:21.218Z,56.80
2023-08-03T10:25:58.612Z,57.90
2023-08-03T10:28:44.861Z,56.80
2023-08-03T10:31:19.459Z,56.30
2023-08-03T10:34:07.540Z,57.10
2023-08-03T10:36:42.243Z,56.40
2023-08-03T10:39:11.029Z,57.20
2023-08-03T10:41:39.333Z,57.00
2023-08-03T10:44:24.996Z,57.10
2023-08-03T10:46:52.973Z,56.50
2023-08-03T10:49:39.839Z,56.40
2023-08-03T10:52:17.849Z,56.50
2023-08-03T10:54:46.598Z,56.10
2023-08-03T10:57:14.536Z,57.30
2023-08-03T10:59:52.077Z,56.70
2023-08-03T11:02:27.543Z,56.70
2023-08-03T11:04:54.940Z,57.50
2023-08-03T11:07:23.730Z,56.40
2023-08-03T11:09:53.284Z,57.20
2023-08-03T11:12:23.766Z,54.60
2023-08-03T11:14:52.730Z,54.80
2023-08-03T11:17:27.220Z,54.30
2023-08-03T11:19:54.729Z,56.70
2023-08-03T11:22:22.610Z,55.30
2023-08-03T11:24:55.765Z,55.30
2023-08-03T11:27:23.513Z,55.00
2023-08-03T11:29:51.527Z,55.40
2023-08-03T11:32:25.522Z,55.30
2023-08-03T11:35:04.953Z,55.10
2023-08-03T11:37:32.697Z,55.60
2023-08-03T11:40:01.795Z,55.50
2023-08-03T11:42:29.770Z,57.10
2023-08-03T11:44:57.598Z,55.40
2023-08-03T11:47:24.920Z,56.40
2023-08-03T11:49:54.048Z,55.60
2023-08-03T11:52:21.992Z,54.90
2023-08-03T11:54:49.625Z,55.50
2023-08-03T11:57:36.649Z,55.90
2023-08-03T12:00:04.443Z,56.70
2023-08-03T12:02:42.397Z,56.50
2023-08-03T12:05:16.559Z,57.70
2023-08-03T12:08:05.862Z,56.40
2023-08-03T12:10:31.998Z,57.70
2023-08-03T12:13:02.712Z,56.80
2023-08-03T12:18:02.337Z,56.10
2023-08-03T12:20:29.680Z,55.80
2023-08-03T12:23:02.215Z,57.20
2023-08-03T12:25:31.362Z,57.40
2023-08-03T12:27:59.333Z,57.10
2023-08-03T12:30:26.323Z,56.70
2023-08-03T12:32:53.286Z,58.60
2023-08-03T12:35:20.318Z,57.90
2023-08-03T12:37:47.996Z,57.70
2023-08-03T12:40:15.484Z,56.50
2023-08-03T12:42:42.364Z,57.40
2023-08-03T12:45:09.431Z,57.80
2023-08-03T12:47:38.313Z,56.60
2023-08-03T12:50:05.812Z,56.30
2023-08-03T12:52:33.914Z,57.40
2023-08-03T12:55:00.821Z,58.00
2023-08-03T12:57:27.828Z,57.90
2023-08-03T12:59:54.745Z,56.80
2023-08-03T13:02:22.374Z,59.20
2023-08-03T13:04:54.032Z,56.20
2023-08-03T13:07:21.197Z,58.60
2023-08-03T13:09:48.374Z,57.90
2023-08-03T13:12:18.457Z,58.30
2023-08-03T13:14:45.380Z,55.70
2023-08-03T13:17:12.423Z,56.60
2023-08-03T13:19:39.880Z,57.40
2023-08-03T13:22:06.773Z,56.10
2023-08-03T13:24:34.223Z,57.60
2023-08-03T13:27:14.634Z,57.20
2023-08-03T13:29:45.311Z,57.40
2023-08-03T13:32:12.990Z,56.80
2023-08-03T13:34:39.998Z,56.90
2023-08-03T13:37:08.904Z,56.10
2023-08-03T13:39:35.979Z,58.20
2023-08-03T13:42:02.997Z,58.00
2023-08-03T13:44:30.111Z,57.80
2023-08-03T13:46:57.339Z,58.10
2023-08-03T13:49:24.970Z,57.50
2023-08-03T13:51:51.854Z,58.70
2023-08-03T13:54:18.733Z,58.90
2023-08-03T13:56:45.680Z,59.50
2023-08-03T13:59:13.378Z,59.40
2023-08-03T14:01:41.972Z,60.10
2023-08-03T14:04:10.304Z,60.10
2023-08-03T14:07:10.413Z,66.60
2023-08-03T14:09:24.512Z,75.50
2023-08-03T14:16:55.164Z,79.30
2023-08-03T14:19:24.093Z,79.10
2023-08-03T14:21:54.053Z,78.40
2023-08-03T14:26:52.097Z,77.60
2023-08-03T14:29:19.014Z,76.90
2023-08-03T14:31:46.391Z,76.50
2023-08-03T14:34:13.684Z,75.90
2023-08-03T14:36:40.719Z,75.40
2023-08-03T14:39:07.714Z,74.90
2023-08-03T14:41:36.446Z,74.50
2023-08-03T14:44:05.845Z,73.80
2023-08-03T14:46:33.950Z,73.30
2023-08-03T14:49:11.130Z,73.00
2023-08-03T14:54:09.859Z,72.30
2023-08-03T14:56:36.785Z,72.00
2023-08-03T14:59:04.385Z,71.80
2023-08-03T15:01:32.347Z,71.60
2023-08-03T15:04:01.256Z,71.40
2023-08-03T15:06:30.556Z,71.30
2023-08-03T15:08:57.581Z,71.10
2023-08-03T15:11:24.470Z,70.80
2023-08-03T15:13:59.031Z,70.70
2023-08-03T15:16:29.806Z,70.60
2023-08-03T15:18:57.653Z,70.60
2023-08-03T15:21:32.885Z,70.50
2023-08-03T15:24:01.368Z,70.90
2023-08-03T15:26:32.386Z,70.80
2023-08-03T15:29:03.544Z,70.50
2023-08-03T15:31:31.605Z,70.40
2023-08-03T15:34:02.207Z,70.40
2023-08-03T15:36:37.144Z,70.40
2023-08-03T15:39:07.662Z,70.30
2023-08-03T15:41:37.497Z,70.40
2023-08-03T15:44:07.947Z,70.40
2023-08-03T15:46:48.166Z,70.20
2023-08-03T15:49:26.688Z,69.90
2023-08-03T15:52:05.571Z,69.60
2023-08-03T15:54:40.721Z,69.30
2023-08-03T15:57:11.221Z,69.10
2023-08-03T15:59:38.735Z,68.90
2023-08-03T16:02:07.724Z,68.60
2023-08-03T16:04:35.319Z,68.40
2023-08-03T16:07:05.313Z,68.10
2023-08-03T16:09:32.243Z,67.70
2023-08-03T16:11:59.156Z,67.00
2023-08-03T16:14:26.112Z,66.30
2023-08-03T16:16:53.193Z,65.90
2023-08-03T16:19:20.251Z,65.20
2023-08-03T16:21:47.267Z,64.60
2023-08-03T16:24:14.196Z,64.00
2023-08-03T16:26:41.104Z,63.40
2023-08-03T16:29:08.801Z,63.20
2023-08-03T16:31:39.360Z,62.80
2023-08-03T16:34:12.569Z,62.70
2023-08-03T16:36:40.049Z,62.40
2023-08-03T16:39:07.411Z,62.30
2023-08-03T16:41:36.594Z,62.00
2023-08-03T16:44:03.633Z,61.70
2023-08-03T16:46:30.548Z,61.50
2023-08-03T16:48:57.506Z,61.70
2023-08-03T16:51:24.940Z,60.80
2023-08-03T16:53:52.328Z,60.70
2023-08-03T16:56:19.292Z,60.60
2023-08-03T16:58:46.341Z,60.40
2023-08-03T17:01:14.537Z,60.30
2023-08-03T17:03:41.847Z,60.10
2023-08-03T17:06:12.217Z,60.00
2023-08-03T17:08:39.205Z,59.80
2023-08-03T17:11:09.035Z,59.90
2023-08-03T17:13:36.003Z,59.50
2023-08-03T17:16:05.799Z,59.30
2023-08-03T17:18:36.144Z,59.20
2023-08-03T17:21:03.357Z,59.10
2023-08-03T17:23:33.152Z,59.00
2023-08-03T17:26:00.985Z,59.00
2023-08-03T17:28:30.012Z,58.90
2023-08-03T17:31:01.710Z,58.90
2023-08-03T17:33:28.883Z,58.80
2023-08-03T17:35:55.848Z,58.70
2023-08-03T17:38:22.815Z,58.70
2023-08-03T17:40:53.558Z,58.70
2023-08-03T17:43:20.532Z,58.60
2023-08-03T17:45:48.401Z,58.60
2023-08-03T17:48:15.421Z,58.50
2023-08-03T17:50:43.202Z,58.50
2023-08-03T17:53:10.335Z,58.50
2023-08-03T17:55:37.233Z,58.50
2023-08-03T17:58:04.274Z,58.60
2023-08-03T18:00:31.799Z,58.60
2023-08-03T18:02:58.872Z,58.60
2023-08-03T18:05:28.008Z,58.70
2023-08-03T18:07:55.280Z,58.80
2023-08-03T18:10:22.206Z,59.10
2023-08-03T18:12:49.271Z,58.90
2023-08-03T18:15:16.331Z,59.00
2023-08-03T18:17:44.135Z,59.00
2023-08-03T18:20:11.420Z,59.00
2023-08-03T18:22:38.328Z,59.10
2023-08-03T18:25:05.356Z,59.10
2023-08-03T18:27:32.256Z,59.10
2023-08-03T18:29:59.232Z,59.20
2023-08-03T18:32:26.196Z,59.20
2023-08-03T18:34:53.165Z,59.20
2023-08-03T18:37:21.039Z,59.20
2023-08-03T18:39:48.060Z,59.20
2023-08-03T18:42:15.042Z,59.20
2023-08-03T18:44:41.979Z,59.20
2023-08-03T18:47:08.929Z,59.30
2023-08-03T18:49:35.828Z,59.20
2023-08-03T18:52:03.804Z,59.20
2023-08-03T18:54:30.770Z,59.20
2023-08-03T18:56:57.802Z,59.30
2023-08-03T18:59:24.678Z,59.30
2023-08-03T19:01:52.471Z,59.30
2023-08-03T19:04:19.504Z,59.30
2023-08-03T19:06:48.036Z,59.20
2023-08-03T19:09:15.204Z,59.20
2023-08-03T19:11:42.037Z,59.30
2023-08-03T19:14:10.304Z,59.30
2023-08-03T19:16:37.634Z,59.30
2023-08-03T19:19:04.871Z,59.30
2023-08-03T19:21:31.803Z,59.30
2023-08-03T19:23:58.720Z,59.30
2023-08-03T19:26:25.608Z,59.30
2023-08-03T19:28:52.540Z,59.30
2023-08-03T19:31:19.642Z,59.40
2023-08-03T19:33:46.582Z,59.30
2023-08-03T19:36:15.002Z,59.30
2023-08-03T19:38:41.989Z,59.30
2023-08-03T19:41:08.907Z,59.30
2023-08-03T19:43:35.837Z,59.30
2023-08-03T19:46:07.963Z,59.30
2023-08-03T19:48:34.886Z,59.20
2023-08-03T20:11:09.332Z,59.40
2023-08-03T20:13:56.141Z,59.30
2023-08-03T20:21:24.453Z,59.30
2023-08-03T20:23:51.511Z,59.30
2023-08-03T20:26:24.814Z,59.40
2023-08-03T20:28:53.506Z,59.30
2023-08-03T20:31:20.424Z,59.30
2023-08-03T20:33:47.534Z,59.30
2023-08-03T20:36:14.549Z,59.40
2023-08-03T20:38:45.658Z,59.90
2023-08-03T20:46:54.882Z,59.30
2023-08-03T20:49:06.369Z,59.30
2023-08-03T20:51:33.324Z,59.30
2023-08-03T20:54:00.177Z,59.30
2023-08-03T20:56:27.051Z,59.30
2023-08-03T20:58:54.129Z,59.30
2023-08-03T21:01:21.154Z,59.30
2023-08-03T21:03:48.152Z,59.30
2023-08-03T21:06:15.192Z,59.20
2023-08-03T21:08:42.132Z,59.20
2023-08-03T21:11:14.077Z,59.20
2023-08-03T21:13:41.321Z,59.20
2023-08-03T21:16:12.159Z,59.20
2023-08-03T21:21:16.595Z,59.10
2023-08-03T21:23:43.853Z,59.10
2023-08-03T21:26:11.078Z,59.10
2023-08-03T21:28:38.169Z,59.10
2023-08-03T21:31:05.084Z,59.00
2023-08-03T21:33:32.623Z,59.10
2023-08-03T21:36:00.194Z,59.00
2023-08-03T21:38:27.783Z,59.00
2023-08-03T21:40:54.826Z,59.00
2023-08-03T21:43:21.794Z,59.00
2023-08-03T21:45:52.817Z,59.00
2023-08-03T21:48:19.782Z,59.00
2023-08-03T21:50:47.521Z,59.00
2023-08-03T21:53:14.555Z,59.00
2023-08-03T21:55:42.381Z,59.00
2023-08-03T21:58:09.608Z,59.00
2023-08-03T22:00:38.059Z,59.00
2023-08-03T22:03:05.194Z,59.00
2023-08-03T22:05:32.287Z,59.00
2023-08-03T22:07:59.196Z,58.90
2023-08-03T22:10:26.210Z,59.00
2023-08-03T22:12:53.703Z,58.90
2023-08-03T22:15:20.815Z,59.00
2023-08-03T22:17:47.818Z,58.90
2023-08-03T22:20:16.753Z,58.90
2023-08-03T22:22:43.768Z,59.10
2023-08-03T22:25:11.135Z,58.90
2023-08-03T22:27:38.108Z,59.00
2023-08-03T22:30:05.403Z,58.90
2023-08-03T22:32:32.340Z,58.90
2023-08-03T22:34:59.293Z,58.90
2023-08-03T22:37:26.258Z,58.90
2023-08-03T22:39:53.704Z,58.90
2023-08-03T22:42:20.648Z,58.90
2023-08-03T22:44:47.818Z,58.90
2023-08-03T22:47:14.751Z,58.90
2023-08-03T22:49:41.725Z,58.90
2023-08-03T22:52:09.793Z,58.90
2023-08-03T22:54:36.774Z,58.90
2023-08-03T22:57:03.828Z,58.90
2023-08-03T22:59:30.813Z,58.90
2023-08-03T23:01:57.787Z,58.90
2023-08-03T23:04:24.912Z,58.90
2023-08-03T23:06:52.026Z,58.80
2023-08-03T23:09:19.067Z,58.90
2023-08-03T23:11:46.234Z,58.80
2023-08-03T23:14:13.363Z,58.80
2023-08-03T23:16:40.395Z,58.80
2023-08-03T23:19:07.920Z,58.80
2023-08-03T23:21:34.890Z,58.80
2023-08-03T23:24:01.894Z,58.80
2023-08-03T23:26:28.806Z,58.70
2023-08-03T23:28:55.905Z,59.20
2023-08-03T23:31:23.128Z,58.70
2023-08-03T23:33:50.176Z,58.70
2023-08-03T23:36:17.165Z,58.70
2023-08-03T23:38:44.174Z,58.60
2023-08-03T23:41:11.155Z,58.70
2023-08-03T23:43:38.046Z,58.60
2023-08-03T23:46:05.094Z,58.70
2023-08-03T23:48:32.050Z,58.70
2023-08-03T23:50:58.983Z,58.70
2023-08-03T23:53:25.927Z,58.60
2023-08-03T23:55:52.782Z,58.60
2023-08-03T23:58:20.278Z,58.60
